Time;durP1;ratioP1;P1;durP2;ratioP2;P2;SDS_P1;SDS_P2;PMS_P1;PMS_P2;Temp;Humidity;BMP_temperature;BMP_pressure;BME280_temperature;BME280_humidity;BME280_pressure;Samples;Min_cycle;Max_cycle;Signal;HPM_P1;HPM_P2
2022/04/09 07:29:31;;;;;;;28.45;6.78;;;4.00;99.90;;;;;;5111242;27;20459;-65
2022/04/09 07:31:57;;;;;;;11.82;4.13;;;4.10;99.90;;;;;;5111259;28;20173;-65
2022/04/09 07:34:22;;;;;;;15.63;4.45;;;4.10;99.90;;;;;;5109877;28;20585;-63
2022/04/09 07:36:48;;;;;;;11.77;4.22;;;4.20;99.90;;;;;;5111108;28;20247;-63
2022/04/09 07:39:13;;;;;;;10.70;3.80;;;4.30;99.90;;;;;;5109702;28;20266;-63
2022/04/09 07:41:39;;;;;;;12.82;4.80;;;4.30;99.90;;;;;;5110979;28;20621;-63
2022/04/09 07:44:05;;;;;;;9.07;4.25;;;4.30;99.90;;;;;;5110918;28;20216;-63
2022/04/09 07:46:31;;;;;;;17.63;4.60;;;4.40;99.90;;;;;;5110914;28;20171;-63
2022/04/09 07:48:56;;;;;;;7.38;4.28;;;4.60;99.90;;;;;;5110768;28;20682;-63
2022/04/09 07:51:22;;;;;;;19.85;4.55;;;4.60;99.90;;;;;;5110836;28;20167;-63
2022/04/09 07:53:48;;;;;;;11.45;4.05;;;4.50;99.90;;;;;;5110721;28;20167;-63
2022/04/09 07:56:13;;;;;;;16.98;5.78;;;4.50;99.90;;;;;;5109471;28;20641;-64
2022/04/09 07:58:39;;;;;;;16.88;4.63;;;4.50;99.90;;;;;;5110723;28;20193;-63
2022/04/09 08:01:05;;;;;;;16.17;4.20;;;4.60;99.90;;;;;;5110602;28;20170;-63
2022/04/09 08:03:31;;;;;;;16.77;4.40;;;4.80;99.90;;;;;;5110568;28;20167;-64
2022/04/09 08:05:57;;;;;;;16.35;5.03;;;5.00;99.90;;;;;;5110507;28;20589;-63
2022/04/09 08:08:22;;;;;;;12.40;4.40;;;5.10;99.90;;;;;;5110386;28;20218;-63
2022/04/09 08:10:48;;;;;;;9.35;4.00;;;5.10;99.90;;;;;;5110468;28;20196;-63
2022/04/09 08:13:14;;;;;;;13.43;4.40;;;5.10;99.90;;;;;;5110406;28;20166;-63
2022/04/09 08:15:39;;;;;;;14.25;4.90;;;5.20;99.90;;;;;;5110383;28;20213;-63
2022/04/09 08:18:06;;;;;;;18.63;4.85;;;5.10;99.90;;;;;;5110246;28;20175;-63
2022/04/09 08:20:32;;;;;;;9.82;4.65;;;5.00;99.90;;;;;;5110309;28;20247;-63
2022/04/09 08:23:00;;;;;;;15.27;3.85;;;4.90;99.90;;;;;;5110234;28;20178;-63
2022/04/09 08:25:26;;;;;;;14.77;4.20;;;4.90;99.90;;;;;;5110143;28;20282;-63
2022/04/09 08:27:53;;;;;;;13.30;4.50;;;4.90;99.90;;;;;;5109971;28;20310;-63
2022/04/09 08:30:20;;;;;;;21.40;5.60;;;4.90;99.90;;;;;;5110036;28;20208;-63
2022/04/09 08:32:46;;;;;;;16.58;3.88;;;4.90;99.90;;;;;;5110084;28;20179;-63
2022/04/09 08:35:12;;;;;;;21.50;5.53;;;4.90;99.90;;;;;;5109996;28;20167;-63
2022/04/09 08:37:39;;;;;;;11.20;4.57;;;4.80;99.90;;;;;;5109935;28;20171;-63
2022/04/09 08:40:06;;;;;;;24.13;5.28;;;4.80;99.90;;;;;;5101037;28;20559;-63
2022/04/09 08:42:32;;;;;;;9.07;3.83;;;5.00;99.90;;;;;;5096307;28;20171;-63
2022/04/09 08:45:01;;;;;;;11.07;3.90;;;5.10;99.90;;;;;;5096226;28;20655;-63
2022/04/09 08:47:28;;;;;;;11.25;3.42;;;5.20;99.90;;;;;;5096222;28;20195;-63
2022/04/09 08:49:55;;;;;;;11.85;3.70;;;5.20;99.90;;;;;;5096065;28;20171;-64
2022/04/09 08:52:22;;;;;;;14.52;4.43;;;5.10;99.90;;;;;;5096151;28;20241;-63
2022/04/09 08:54:48;;;;;;;9.48;3.95;;;5.20;99.90;;;;;;5096084;28;20175;-63
2022/04/09 08:57:14;;;;;;;6.65;3.60;;;5.30;99.90;;;;;;5096030;28;20172;-63
2022/04/09 08:59:40;;;;;;;7.30;3.35;;;5.50;99.90;;;;;;5095960;28;20180;-63
2022/04/09 09:02:06;;;;;;;23.13;3.67;;;5.70;99.90;;;;;;5096004;28;20172;-63
2022/04/09 09:04:32;;;;;;;7.45;3.63;;;5.90;99.90;;;;;;5095831;28;20200;-63
2022/04/09 09:07:18;;;;;;;9.10;3.58;;;5.90;99.90;;;;;;5096045;28;20505;-63
2022/04/09 09:09:43;;;;;;;5.00;2.50;;;5.90;99.90;;;;;;5095795;28;20564;-64
2022/04/09 09:12:12;;;;;;;7.70;4.13;;;5.80;99.90;;;;;;5094388;28;20174;-63
2022/04/09 09:14:43;;;;;;;7.05;3.72;;;5.90;99.90;;;;;;5095634;28;20731;-63
2022/04/09 09:17:09;;;;;;;8.10;3.13;;;5.90;99.90;;;;;;5095617;28;20254;-63
2022/04/09 09:19:43;;;;;;;6.38;3.13;;;5.90;99.90;;;;;;5095595;28;20214;-63
2022/04/09 09:22:09;;;;;;;3.80;2.60;;;5.80;99.90;;;;;;5095573;28;20167;-63
2022/04/09 09:24:34;;;;;;;3.22;2.85;;;5.80;99.90;;;;;;5095428;28;20266;-63
2022/04/09 09:27:02;;;;;;;6.22;3.20;;;5.90;99.90;;;;;;5095477;28;20183;-63
2022/04/09 09:29:29;;;;;;;8.55;2.75;;;5.90;99.90;;;;;;5095136;28;20211;-63
2022/04/09 09:31:56;;;;;;;6.95;2.80;;;5.80;99.90;;;;;;5095370;28;20195;-64
2022/04/09 09:34:22;;;;;;;4.65;2.92;;;6.30;99.90;;;;;;5095342;28;20167;-63
2022/04/09 09:36:49;;;;;;;3.10;2.35;;;5.80;99.90;;;;;;5095204;28;20164;-63
2022/04/09 09:39:25;;;;;;;3.38;2.22;;;5.70;99.90;;;;;;5095124;28;20168;-63
2022/04/09 09:41:55;;;;;;;10.27;2.70;;;5.80;99.90;;;;;;5094886;28;20761;-64
2022/04/09 09:44:23;;;;;;;2.97;2.28;;;5.80;99.90;;;;;;5095044;28;20176;-63
2022/04/09 09:46:51;;;;;;;2.70;2.50;;;5.80;99.90;;;;;;5094900;28;20256;-63
2022/04/09 09:49:18;;;;;;;3.28;2.97;;;5.90;99.90;;;;;;5093618;28;20254;-63
2022/04/09 09:52:00;;;;;;;10.80;3.28;;;6.00;99.90;;;;;;5093889;28;20163;-63
2022/04/09 09:54:26;;;;;;;7.70;2.83;;;6.10;99.90;;;;;;5094854;28;20163;-63
2022/04/09 09:56:51;;;;;;;6.85;3.05;;;6.10;99.90;;;;;;5094909;28;20635;-63
2022/04/09 09:59:17;;;;;;;4.45;3.08;;;6.10;99.90;;;;;;5094759;28;20171;-63
2022/04/09 10:01:47;;;;;;;8.07;3.67;;;6.10;99.90;;;;;;5094727;28;20257;-63
2022/04/09 10:04:13;;;;;;;14.25;4.03;;;6.10;99.90;;;;;;5094718;28;20233;-63
2022/04/09 10:06:42;;;;;;;8.52;3.20;;;6.20;99.90;;;;;;5093367;28;20171;-63
2022/04/09 10:09:09;;;;;;;4.88;3.03;;;6.30;99.90;;;;;;5094518;28;20237;-63
2022/04/09 10:11:39;;;;;;;5.10;3.10;;;6.10;99.90;;;;;;5093333;28;20175;-63
2022/04/09 10:14:06;;;;;;;7.30;3.58;;;5.90;99.90;;;;;;5094570;28;20168;-63
2022/04/09 10:16:34;;;;;;;6.40;3.10;;;5.60;99.90;;;;;;5094486;28;20164;-63
2022/04/09 10:19:01;;;;;;;9.05;2.88;;;5.40;99.90;;;;;;5094273;28;20168;-63
2022/04/09 10:21:29;;;;;;;8.57;3.35;;;5.10;99.90;;;;;;5094318;28;20659;-63
2022/04/09 10:23:57;;;;;;;7.32;3.30;;;5.00;99.90;;;;;;5094212;28;20167;-63
2022/04/09 10:26:23;;;;;;;7.95;3.90;;;4.80;99.90;;;;;;5094236;28;20237;-63
2022/04/09 10:28:52;;;;;;;6.88;3.50;;;4.70;99.90;;;;;;5094042;28;20248;-63
2022/04/09 10:31:24;;;;;;;4.85;3.88;;;4.70;99.90;;;;;;5094226;28;20174;-63
2022/04/09 10:33:57;;;;;;;3.50;3.20;;;4.80;99.90;;;;;;5094156;28;20168;-64
2022/04/09 10:36:41;;;;;;;5.18;3.00;;;5.00;99.90;;;;;;5092712;28;20163;-64
2022/04/09 10:39:25;;;;;;;6.95;3.30;;;5.20;99.90;;;;;;5093897;28;20719;-64
2022/04/09 10:41:54;;;;;;;4.32;3.28;;;5.30;99.90;;;;;;5094189;28;20259;-64
2022/04/09 10:44:36;;;;;;;5.45;3.58;;;5.30;99.90;;;;;;5093759;28;20174;-64
2022/04/09 10:47:03;;;;;;;4.13;3.42;;;5.40;99.90;;;;;;5093901;28;20160;-63
2022/04/09 10:49:30;;;;;;;7.25;4.03;;;5.50;99.90;;;;;;5093791;28;20191;-63
2022/04/09 10:52:02;;;;;;;7.07;3.20;;;5.70;99.90;;;;;;5093818;28;20183;-63
2022/04/09 10:54:28;;;;;;;5.80;3.60;;;5.90;99.90;;;;;;5093800;28;20171;-63
2022/04/09 10:56:53;;;;;;;15.80;3.58;;;6.20;99.90;;;;;;5093661;28;20194;-63
2022/04/09 10:59:22;;;;;;;4.18;2.42;;;6.30;99.90;;;;;;5093752;28;20171;-63
2022/04/09 11:01:49;;;;;;;1.80;1.77;;;5.70;99.90;;;;;;5093493;28;20168;-63
2022/04/09 11:04:29;;;;;;;2.10;2.00;;;5.10;99.90;;;;;;5093522;28;20313;-63
2022/04/09 11:07:03;;;;;;;1.70;1.60;;;4.30;99.90;;;;;;5093609;28;20171;-63
2022/04/09 11:09:51;;;;;;;2.05;1.95;;;3.60;99.90;;;;;;5093377;28;20191;-63
2022/04/09 11:12:20;;;;;;;3.78;2.50;;;3.20;99.90;;;;;;5093519;28;20160;-63
2022/04/09 11:14:49;;;;;;;2.88;2.00;;;2.90;99.90;;;;;;5093400;28;20228;-63
2022/04/09 11:17:18;;;;;;;5.97;1.85;;;2.80;99.90;;;;;;5093465;28;20187;-63
2022/04/09 11:19:45;;;;;;;2.28;2.08;;;2.70;99.90;;;;;;5093459;28;20621;-63
2022/04/09 11:22:11;;;;;;;1.95;1.85;;;2.70;99.90;;;;;;5093414;28;20179;-63
2022/04/09 11:24:37;;;;;;;2.78;2.67;;;2.70;99.90;;;;;;5093218;28;20160;-63
2022/04/09 11:27:03;;;;;;;3.63;1.85;;;2.80;99.90;;;;;;5093369;28;20251;-63
2022/04/09 11:29:35;;;;;;;1.92;1.92;;;2.80;99.90;;;;;;5093297;28;20353;-63
2022/04/09 11:32:02;;;;;;;2.10;1.95;;;2.90;99.90;;;;;;5093567;28;20250;-63
2022/04/09 11:34:27;;;;;;;2.42;2.33;;;3.00;99.90;;;;;;5093232;28;20164;-63
2022/04/09 11:37:12;;;;;;;1.80;1.70;;;3.20;99.90;;;;;;5093257;28;20174;-63
2022/04/09 11:39:40;;;;;;;1.85;1.65;;;3.20;99.90;;;;;;5093290;28;20172;-63
2022/04/09 11:42:09;;;;;;;3.08;2.05;;;3.40;99.90;;;;;;5093319;28;20621;-63
2022/04/09 11:44:36;;;;;;;2.10;2.00;;;3.50;99.90;;;;;;5093242;28;20628;-63
2022/04/09 11:47:13;;;;;;;4.25;2.10;;;3.60;99.90;;;;;;5093439;28;20537;-63
2022/04/09 11:49:40;;;;;;;2.60;2.50;;;3.80;99.90;;;;;;5091926;28;20647;-63
2022/04/09 11:52:06;;;;;;;5.22;2.65;;;4.00;99.90;;;;;;5093193;28;20258;-63
2022/04/09 11:54:33;;;;;;;2.75;2.63;;;4.20;99.90;;;;;;5093174;28;20243;-63
2022/04/09 11:57:00;;;;;;;3.22;2.30;;;4.50;99.90;;;;;;5093119;28;20163;-63
2022/04/09 11:59:26;;;;;;;6.00;2.85;;;4.70;99.90;;;;;;5093057;28;20656;-63
2022/04/09 12:01:52;;;;;;;3.72;2.53;;;5.00;99.90;;;;;;5093101;28;20179;-63
2022/04/09 12:04:20;;;;;;;2.88;2.67;;;5.20;99.90;;;;;;5093082;28;20172;-63
2022/04/09 12:06:45;;;;;;;4.38;3.88;;;5.50;99.90;;;;;;5093051;28;20168;-63
2022/04/09 12:09:13;;;;;;;2.97;2.60;;;5.80;99.90;;;;;;5092878;28;20210;-63
2022/04/09 12:11:52;;;;;;;5.10;4.60;;;6.10;99.90;;;;;;5093031;28;20160;-64
2022/04/09 12:14:20;;;;;;;9.95;3.10;;;6.40;99.90;;;;;;5093423;28;20160;-64
2022/04/09 12:16:46;;;;;;;3.55;2.67;;;6.60;99.90;;;;;;5096789;28;20220;-63
2022/04/09 12:19:12;;;;;;;3.05;2.78;;;6.80;99.90;;;;;;5096783;28;20206;-63
2022/04/09 12:21:38;;;;;;;4.72;2.33;;;7.10;99.90;;;;;;5095484;28;20197;-64
2022/04/09 12:24:11;;;;;;;2.40;1.80;;;7.30;99.90;;;;;;5096776;28;20164;-63
2022/04/09 12:26:39;;;;;;;3.72;2.67;;;7.40;99.90;;;;;;5095222;28;20226;-64
2022/04/09 12:29:12;;;;;;;5.60;1.90;;;7.50;99.90;;;;;;5096329;28;20680;-63
2022/04/09 12:31:41;;;;;;;6.00;2.00;;;7.70;99.90;;;;;;5096531;28;20517;-63
2022/04/09 12:34:08;;;;;;;4.72;2.13;;;7.70;99.90;;;;;;5096377;28;20175;-63
2022/04/09 12:36:35;;;;;;;2.42;2.22;;;7.80;99.90;;;;;;5096415;28;20254;-63
2022/04/09 12:39:06;;;;;;;1.55;1.55;;;8.20;99.90;;;;;;5096134;28;20171;-63
2022/04/09 12:41:48;;;;;;;2.22;1.90;;;8.40;99.90;;;;;;5096362;28;20167;-63
2022/04/09 12:44:33;;;;;;;2.92;1.63;;;8.50;99.90;;;;;;5096259;28;20667;-64
2022/04/09 12:46:59;;;;;;;4.13;1.85;;;8.60;99.90;;;;;;5096192;28;20186;-64
2022/04/09 12:49:39;;;;;;;4.00;2.38;;;8.20;99.90;;;;;;5094770;28;20206;-63
2022/04/09 12:52:08;;;;;;;3.13;1.77;;;7.90;99.90;;;;;;5094852;28;20255;-63
2022/04/09 12:54:34;;;;;;;1.95;1.83;;;7.60;99.90;;;;;;5096066;28;20494;-63
2022/04/09 12:57:12;;;;;;;2.13;1.88;;;7.40;99.90;;;;;;5094806;28;20175;-63
2022/04/09 12:59:38;;;;;;;4.85;2.17;;;7.30;99.90;;;;;;5096015;28;20201;-63
2022/04/09 13:02:05;;;;;;;7.93;1.70;;;7.30;99.90;;;;;;5096148;28;20689;-63
2022/04/09 13:04:31;;;;;;;9.15;2.25;;;7.30;99.90;;;;;;5095993;28;20267;-63
2022/04/09 13:06:56;;;;;;;2.83;1.67;;;7.40;99.90;;;;;;5095897;28;20255;-63
2022/04/09 13:09:22;;;;;;;2.10;1.98;;;7.60;99.90;;;;;;5095704;28;20282;-63
2022/04/09 13:11:48;;;;;;;4.40;1.67;;;7.80;99.90;;;;;;5095757;28;20168;-63
2022/04/09 13:14:14;;;;;;;3.92;1.60;;;7.90;99.90;;;;;;5095681;28;20175;-63
2022/04/09 13:16:39;;;;;;;2.28;1.50;;;8.10;99.90;;;;;;5095629;28;20191;-63
2022/04/09 13:19:05;;;;;;;4.20;1.80;;;8.40;99.90;;;;;;5095538;28;20640;-64
2022/04/09 13:21:31;;;;;;;2.38;1.70;;;8.40;99.90;;;;;;5095576;28;20225;-63
2022/04/09 13:23:57;;;;;;;2.45;1.92;;;8.50;99.90;;;;;;5095142;28;20171;-64
2022/04/09 13:26:22;;;;;;;2.35;1.83;;;8.80;99.90;;;;;;5095298;28;20230;-63
2022/04/09 13:28:49;;;;;;;5.68;2.13;;;8.80;99.90;;;;;;5095148;28;20727;-64
2022/04/09 13:31:15;;;;;;;1.65;1.58;;;8.70;99.90;;;;;;5095275;28;20172;-63
2022/04/09 13:33:40;;;;;;;6.75;1.80;;;8.60;99.90;;;;;;5095304;28;20621;-63
2022/04/09 13:36:06;;;;;;;5.70;1.67;;;8.60;99.90;;;;;;5095236;28;20629;-63
2022/04/09 13:38:32;;;;;;;1.67;1.52;;;8.60;99.90;;;;;;5095013;28;20206;-64
2022/04/09 13:40:57;;;;;;;3.97;1.98;;;8.70;99.90;;;;;;5095104;28;20175;-63
2022/04/09 13:43:23;;;;;;;3.67;1.90;;;9.10;99.90;;;;;;5093682;28;20179;-63
2022/04/09 13:45:49;;;;;;;2.95;2.17;;;9.50;99.90;;;;;;5095009;28;20171;-64
2022/04/09 13:48:14;;;;;;;2.78;2.55;;;9.70;99.90;;;;;;5094663;28;20199;-64
2022/04/09 13:50:42;;;;;;;3.65;1.73;;;9.80;99.90;;;;;;5095008;28;20181;-64
2022/04/09 13:53:08;;;;;;;3.33;1.80;;;10.00;99.90;;;;;;5093615;28;20172;-65
2022/04/09 13:55:34;;;;;;;2.78;1.77;;;9.90;99.90;;;;;;5094959;28;20290;-65
2022/04/09 13:57:59;;;;;;;1.73;1.63;;;9.40;99.90;;;;;;5094824;28;20595;-65
2022/04/09 14:00:25;;;;;;;9.07;1.90;;;9.00;99.90;;;;;;5094776;28;20183;-65
2022/04/09 14:02:51;;;;;;;4.38;1.85;;;8.70;99.90;;;;;;5093495;28;20179;-65
2022/04/09 14:05:16;;;;;;;3.60;1.70;;;8.50;99.90;;;;;;5094709;28;20211;-65
2022/04/09 14:07:42;;;;;;;7.68;1.98;;;8.40;99.90;;;;;;5094573;28;20195;-65
2022/04/09 14:10:08;;;;;;;4.15;2.35;;;8.30;99.90;;;;;;5094343;28;20617;-65
2022/04/09 14:12:35;;;;;;;7.25;1.95;;;8.30;99.90;;;;;;5094570;28;20175;-65
2022/04/09 14:15:01;;;;;;;1.77;1.70;;;8.50;99.90;;;;;;5094521;28;20613;-65
2022/04/09 14:17:26;;;;;;;3.35;2.22;;;8.60;99.90;;;;;;5094385;28;20176;-64
2022/04/09 14:19:52;;;;;;;4.70;2.20;;;8.00;99.90;;;;;;5094481;28;20171;-64
2022/04/09 14:22:18;;;;;;;3.10;2.45;;;7.80;99.90;;;;;;5094350;28;20183;-64
2022/04/09 14:24:44;;;;;;;4.85;2.33;;;8.00;99.90;;;;;;5094257;28;20574;-64
2022/04/09 14:27:10;;;;;;;2.63;1.70;;;8.10;99.90;;;;;;5094052;28;20684;-64
2022/04/09 14:29:36;;;;;;;2.33;2.13;;;8.40;99.90;;;;;;5094231;28;20290;-64
2022/04/09 14:32:02;;;;;;;2.42;1.52;;;8.60;99.90;;;;;;5094447;28;20224;-64
2022/04/09 14:34:28;;;;;;;2.15;1.48;;;8.80;99.90;;;;;;5094166;28;20179;-64
2022/04/09 14:36:54;;;;;;;3.10;1.90;;;9.00;99.90;;;;;;5093996;28;20539;-63
2022/04/09 14:39:20;;;;;;;2.20;2.15;;;9.10;99.90;;;;;;5094233;28;20623;-63
2022/04/09 14:41:47;;;;;;;2.35;1.75;;;8.80;99.90;;;;;;5094179;28;20170;-63
2022/04/09 14:44:14;;;;;;;1.88;1.80;;;8.80;99.90;;;;;;5094261;28;20203;-63
2022/04/09 14:46:39;;;;;;;3.55;1.73;;;8.80;99.90;;;;;;5093915;28;20164;-63
2022/04/09 14:49:06;;;;;;;1.98;1.63;;;8.90;99.90;;;;;;5092905;28;20320;-63
2022/04/09 14:51:32;;;;;;;4.22;1.90;;;8.80;99.90;;;;;;5092124;28;20172;-63
2022/04/09 14:54:01;;;;;;;5.55;2.08;;;8.60;99.90;;;;;;5092133;28;20172;-63
2022/04/09 14:56:27;;;;;;;3.55;1.83;;;8.70;99.90;;;;;;5092234;28;20171;-62
2022/04/09 14:58:58;;;;;;;6.70;2.53;;;8.90;99.90;;;;;;5093607;28;20225;-62
2022/04/09 15:01:26;;;;;;;1.90;1.80;;;8.90;99.90;;;;;;5093719;28;20210;-63
2022/04/09 15:03:51;;;;;;;4.82;2.22;;;9.10;99.90;;;;;;5093654;28;20221;-63
2022/04/09 15:06:17;;;;;;;1.60;1.50;;;9.20;99.90;;;;;;5093670;28;20207;-62
2022/04/09 15:08:43;;;;;;;6.85;2.47;;;9.40;99.90;;;;;;5093540;28;20199;-62
2022/04/09 15:11:08;;;;;;;1.75;1.65;;;9.60;99.90;;;;;;5093532;28;20246;-63
2022/04/09 15:13:36;;;;;;;4.43;2.35;;;9.60;99.90;;;;;;5093539;28;20216;-62
2022/04/09 15:16:01;;;;;;;4.07;1.70;;;9.40;99.90;;;;;;5093463;28;20175;-63
2022/04/09 15:18:27;;;;;;;1.60;1.50;;;9.40;99.90;;;;;;5093436;28;20176;-63
2022/04/09 15:20:53;;;;;;;2.40;1.80;;;9.10;99.90;;;;;;5093462;28;20314;-62
2022/04/09 15:23:18;;;;;;;4.57;1.83;;;9.10;99.90;;;;;;5093401;28;20278;-62
2022/04/09 15:25:44;;;;;;;2.30;1.65;;;9.20;99.90;;;;;;5093416;28;20168;-62
2022/04/09 15:28:09;;;;;;;1.73;1.63;;;9.10;99.90;;;;;;5093189;28;20676;-62
2022/04/09 15:30:35;;;;;;;3.28;1.42;;;9.20;99.90;;;;;;5093095;28;20578;-62
2022/04/09 15:33:01;;;;;;;1.63;1.42;;;9.50;99.90;;;;;;5093061;28;20167;-63
2022/04/09 15:35:27;;;;;;;1.95;1.80;;;9.60;99.90;;;;;;5093327;28;20163;-62
2022/04/09 15:37:55;;;;;;;1.75;1.65;;;9.50;99.90;;;;;;5093360;28;20225;-62
2022/04/09 15:40:21;;;;;;;5.45;2.20;;;9.00;99.90;;;;;;5093241;28;20168;-63
2022/04/09 15:42:47;;;;;;;5.53;2.63;;;8.50;99.90;;;;;;5093256;28;20167;-63
2022/04/09 15:45:13;;;;;;;3.40;2.08;;;8.10;99.90;;;;;;5091947;28;20172;-63
2022/04/09 15:47:40;;;;;;;3.00;1.90;;;7.90;99.90;;;;;;5093115;28;20195;-63
2022/04/09 15:50:06;;;;;;;4.45;2.40;;;7.80;99.90;;;;;;5095079;28;20163;-63
2022/04/09 15:52:32;;;;;;;4.88;1.83;;;7.90;99.90;;;;;;5097310;28;20621;-63
2022/04/09 15:54:58;;;;;;;2.17;1.92;;;8.00;99.90;;;;;;5097141;28;20175;-63
2022/04/09 15:57:23;;;;;;;1.98;1.70;;;8.20;99.90;;;;;;5097196;28;20560;-63
2022/04/09 15:59:49;;;;;;;7.65;2.80;;;8.20;99.90;;;;;;5097208;28;20168;-63
2022/04/09 16:02:15;;;;;;;3.67;1.55;;;8.10;99.90;;;;;;5097043;28;20164;-63
2022/04/09 16:04:40;;;;;;;3.33;2.20;;;8.30;99.90;;;;;;5097089;28;20168;-63
2022/04/09 16:07:06;;;;;;;2.20;2.10;;;8.60;99.90;;;;;;5097008;28;20176;-63
2022/04/09 16:09:32;;;;;;;5.10;1.80;;;9.00;99.90;;;;;;5096898;28;20184;-63
2022/04/09 16:11:59;;;;;;;2.17;1.98;;;9.20;99.90;;;;;;5097010;28;20251;-63
2022/04/09 16:14:25;;;;;;;2.95;2.03;;;8.90;99.90;;;;;;5096900;28;20164;-63
2022/04/09 16:16:51;;;;;;;3.95;1.90;;;8.40;99.90;;;;;;5096860;28;20160;-63
2022/04/09 16:19:16;;;;;;;2.63;2.42;;;8.00;99.90;;;;;;5096780;28;20189;-63
2022/04/09 16:21:42;;;;;;;1.70;1.60;;;7.70;99.90;;;;;;5096712;28;20201;-63
2022/04/09 16:24:08;;;;;;;2.95;1.88;;;7.10;99.90;;;;;;5096664;28;20176;-63
2022/04/09 16:26:34;;;;;;;1.70;1.60;;;6.40;99.90;;;;;;5096662;28;20176;-62
2022/04/09 16:28:59;;;;;;;2.97;2.20;;;5.90;99.90;;;;;;5096349;28;20255;-62
2022/04/09 16:31:25;;;;;;;4.10;3.00;;;5.70;99.90;;;;;;5096596;28;20167;-62
2022/04/09 16:33:51;;;;;;;3.85;2.28;;;5.70;99.90;;;;;;5095200;28;20159;-62
2022/04/09 16:36:17;;;;;;;3.88;2.08;;;5.90;99.90;;;;;;5096443;28;20160;-63
2022/04/09 16:38:42;;;;;;;6.60;2.22;;;6.00;99.90;;;;;;5096489;28;20524;-63
2022/04/09 16:41:08;;;;;;;4.93;2.00;;;6.20;99.90;;;;;;5096367;28;20164;-63
2022/04/09 16:43:34;;;;;;;1.98;1.90;;;6.30;99.90;;;;;;5096360;28;20643;-62
2022/04/09 16:46:00;;;;;;;4.72;1.70;;;6.40;99.90;;;;;;5096309;28;20592;-63
2022/04/09 16:48:26;;;;;;;2.92;2.17;;;6.60;99.90;;;;;;5096109;28;20200;-63
2022/04/09 16:50:51;;;;;;;6.00;2.08;;;7.10;99.90;;;;;;5096182;28;20170;-63
2022/04/09 16:53:17;;;;;;;4.72;2.15;;;7.40;99.90;;;;;;5096125;28;20167;-63
2022/04/09 16:55:42;;;;;;;3.58;1.90;;;7.80;99.90;;;;;;5096088;28;20164;-62
2022/04/09 16:58:09;;;;;;;5.50;2.83;;;8.10;99.90;;;;;;5096039;28;20175;-63
2022/04/09 17:00:36;;;;;;;3.53;2.28;;;8.30;99.90;;;;;;5095660;28;20254;-63
2022/04/09 17:03:02;;;;;;;3.90;2.58;;;8.20;99.90;;;;;;5095926;28;20663;-63
2022/04/09 17:05:28;;;;;;;5.70;2.47;;;8.00;99.90;;;;;;5094652;28;20196;-63
2022/04/09 17:07:54;;;;;;;3.53;2.22;;;7.80;99.90;;;;;;5095738;28;20188;-63
2022/04/09 17:10:21;;;;;;;1.77;1.67;;;7.50;99.90;;;;;;5095840;28;20172;-63
2022/04/09 17:12:47;;;;;;;2.03;1.92;;;7.40;99.90;;;;;;5094553;28;20652;-63
2022/04/09 17:15:13;;;;;;;2.47;1.83;;;7.30;99.90;;;;;;5095746;28;20172;-63
2022/04/09 17:17:38;;;;;;;4.85;2.20;;;7.20;99.90;;;;;;5095679;28;20168;-63
2022/04/09 17:20:06;;;;;;;1.85;1.75;;;7.20;99.90;;;;;;5095620;28;20171;-62
2022/04/09 17:22:32;;;;;;;2.60;2.35;;;7.10;99.90;;;;;;5095635;28;20190;-63
2022/04/09 17:24:57;;;;;;;2.83;2.28;;;7.00;99.90;;;;;;5095545;28;20251;-63
2022/04/09 17:27:23;;;;;;;4.35;2.10;;;6.90;99.90;;;;;;5095468;28;20579;-63
2022/04/09 17:29:49;;;;;;;4.47;1.95;;;6.80;99.90;;;;;;5095559;28;20251;-63
2022/04/09 17:32:14;;;;;;;4.95;2.30;;;6.80;99.90;;;;;;5095109;28;20522;-63
2022/04/09 17:34:40;;;;;;;3.83;2.25;;;6.70;99.90;;;;;;5095267;28;20183;-63
2022/04/09 17:37:08;;;;;;;2.13;1.92;;;6.60;99.90;;;;;;5095218;28;20239;-63
2022/04/09 17:39:33;;;;;;;5.75;2.10;;;6.60;99.90;;;;;;5095277;28;20671;-63
2022/04/09 17:41:59;;;;;;;4.60;2.40;;;6.50;99.90;;;;;;5093955;28;20176;-63
2022/04/09 17:44:25;;;;;;;3.70;2.45;;;6.50;99.90;;;;;;5095213;28;20164;-63
2022/04/09 17:46:51;;;;;;;4.47;2.50;;;6.40;99.90;;;;;;5095060;28;20603;-63
2022/04/09 17:49:18;;;;;;;2.50;2.03;;;6.30;99.90;;;;;;5094930;28;20226;-63
2022/04/09 17:51:45;;;;;;;5.72;2.25;;;6.30;99.90;;;;;;5095028;28;20247;-63
2022/04/09 17:54:10;;;;;;;1.90;1.80;;;6.30;99.90;;;;;;5094990;28;20750;-63
2022/04/09 17:56:37;;;;;;;4.68;2.13;;;6.20;99.90;;;;;;5094919;28;20267;-63
2022/04/09 17:59:03;;;;;;;4.45;2.08;;;6.20;99.90;;;;;;5094872;28;20175;-63
2022/04/09 18:01:29;;;;;;;2.75;2.13;;;6.20;99.90;;;;;;5094861;28;20648;-63
2022/04/09 18:03:55;;;;;;;5.25;2.22;;;6.10;99.90;;;;;;5094760;28;20252;-63
2022/04/09 18:06:21;;;;;;;5.20;2.05;;;6.00;99.90;;;;;;5094761;28;20195;-63
